sensor_id;sensor_type;location;lat;lon;timestamp;pressure;altitude;pressure_sealevel;temperature;humidity
10014;BME280;45684;48.358;10.746;2023-03-13T16:54:49;94695.50;;;17.94;57.63
10014;BME280;45684;48.358;10.746;2023-03-13T16:57:21;94679.97;;;17.76;58.11
10014;BME280;45684;48.358;10.746;2023-03-13T16:59:50;94687.84;;;17.56;59.40
10014;BME280;45684;48.358;10.746;2023-03-13T17:02:19;94684.41;;;17.34;61.17
10014;BME280;45684;48.358;10.746;2023-03-13T17:04:47;94680.19;;;17.16;63.45
10014;BME280;45684;48.358;10.746;2023-03-13T17:07:17;94685.69;;;17.01;64.96
10014;BME280;45684;48.358;10.746;2023-03-13T17:09:46;94683.75;;;16.88;65.90
10014;BME280;45684;48.358;10.746;2023-03-13T17:12:17;94671.28;;;16.90;61.74
10014;BME280;45684;48.358;10.746;2023-03-13T17:14:45;94668.97;;;16.78;61.95
10014;BME280;45684;48.358;10.746;2023-03-13T17:17:14;94658.44;;;16.66;63.02
10014;BME280;45684;48.358;10.746;2023-03-13T17:19:44;94667.00;;;16.50;66.15
10014;BME280;45684;48.358;10.746;2023-03-13T17:22:13;94669.38;;;16.30;69.34
10014;BME280;45684;48.358;10.746;2023-03-13T17:24:42;94663.13;;;16.08;71.21
10014;BME280;45684;48.358;10.746;2023-03-13T17:27:11;94662.31;;;15.86;74.06
10014;BME280;45684;48.358;10.746;2023-03-13T17:29:41;94661.09;;;15.66;78.44
10014;BME280;45684;48.358;10.746;2023-03-13T17:32:09;94666.09;;;15.49;79.06
10014;BME280;45684;48.358;10.746;2023-03-13T17:34:37;94659.81;;;15.31;81.81
10014;BME280;45684;48.358;10.746;2023-03-13T17:37:12;94648.88;;;15.20;83.46
10014;BME280;45684;48.358;10.746;2023-03-13T17:39:41;94659.69;;;15.02;86.95
10014;BME280;45684;48.358;10.746;2023-03-13T17:42:09;94654.53;;;14.87;90.40
10014;BME280;45684;48.358;10.746;2023-03-13T17:44:43;94656.38;;;14.65;90.98
10014;BME280;45684;48.358;10.746;2023-03-13T17:47:39;94660.84;;;14.43;92.11
10014;BME280;45684;48.358;10.746;2023-03-13T17:50:16;94646.75;;;14.30;93.90
10014;BME280;45684;48.358;10.746;2023-03-13T17:52:44;94642.81;;;14.20;95.20
10014;BME280;45684;48.358;10.746;2023-03-13T17:55:12;94639.50;;;13.97;94.62
10014;BME280;45684;48.358;10.746;2023-03-13T17:57:40;94639.78;;;13.81;96.74
10014;BME280;45684;48.358;10.746;2023-03-13T18:00:19;94629.13;;;13.65;97.09
10014;BME280;45684;48.358;10.746;2023-03-13T18:02:47;94615.84;;;13.57;99.51
10014;BME280;45684;48.358;10.746;2023-03-13T18:05:16;94601.34;;;13.42;99.66
10014;BME280;45684;48.358;10.746;2023-03-13T18:07:44;94597.03;;;13.34;100.00
10014;BME280;45684;48.358;10.746;2023-03-13T18:10:17;94586.69;;;13.13;100.00
10014;BME280;45684;48.358;10.746;2023-03-13T18:12:46;94582.75;;;13.10;100.00
10014;BME280;45684;48.358;10.746;2023-03-13T18:15:15;94580.72;;;13.00;100.00
10014;BME280;45684;48.358;10.746;2023-03-13T18:17:43;94561.56;;;12.86;100.00
10014;BME280;45684;48.358;10.746;2023-03-13T18:20:14;94555.28;;;12.78;100.00
10014;BME280;45684;48.358;10.746;2023-03-13T18:22:42;94548.16;;;12.66;100.00
10014;BME280;45684;48.358;10.746;2023-03-13T18:25:11;94538.81;;;12.60;100.00
10014;BME280;45684;48.358;10.746;2023-03-13T18:27:39;94536.50;;;12.62;100.00
10014;BME280;45684;48.358;10.746;2023-03-13T18:30:17;94529.22;;;12.70;100.00
10014;BME280;45684;48.358;10.746;2023-03-13T18:32:45;94521.03;;;12.33;100.00
10014;BME280;45684;48.358;10.746;2023-03-13T18:35:14;94506.53;;;12.21;100.00
10014;BME280;45684;48.358;10.746;2023-03-13T18:37:43;94501.44;;;12.16;100.00
10014;BME280;45684;48.358;10.746;2023-03-13T18:40:18;94497.22;;;12.19;100.00
10014;BME280;45684;48.358;10.746;2023-03-13T18:42:46;94486.34;;;12.15;100.00
10014;BME280;45684;48.358;10.746;2023-03-13T18:45:17;94486.78;;;12.17;100.00
10014;BME280;45684;48.358;10.746;2023-03-13T18:47:46;94488.66;;;12.13;100.00
10014;BME280;45684;48.358;10.746;2023-03-13T18:50:18;94487.88;;;12.13;100.00
10014;BME280;45684;48.358;10.746;2023-03-13T18:52:49;94484.69;;;12.07;100.00
10014;BME280;45684;48.358;10.746;2023-03-13T18:55:17;94478.41;;;11.99;100.00
10014;BME280;45684;48.358;10.746;2023-03-13T18:57:46;94474.47;;;11.97;100.00
10014;BME280;45684;48.358;10.746;2023-03-13T19:00:17;94460.59;;;11.98;100.00
10014;BME280;45684;48.358;10.746;2023-03-13T19:02:45;94453.75;;;12.08;100.00
10014;BME280;45684;48.358;10.746;2023-03-13T19:05:14;94453.50;;;12.20;100.00
10014;BME280;45684;48.358;10.746;2023-03-13T19:07:43;94453.16;;;12.22;100.00
10014;BME280;45684;48.358;10.746;2023-03-13T19:10:17;94444.72;;;12.31;100.00
10014;BME280;45684;48.358;10.746;2023-03-13T19:12:46;94433.09;;;12.30;100.00
10014;BME280;45684;48.358;10.746;2023-03-13T19:15:16;94435.84;;;12.34;100.00
10014;BME280;45684;48.358;10.746;2023-03-13T19:17:44;94424.09;;;12.56;100.00
10014;BME280;45684;48.358;10.746;2023-03-13T19:20:14;94426.13;;;12.66;100.00
10014;BME280;45684;48.358;10.746;2023-03-13T19:22:41;94425.78;;;12.71;100.00
10014;BME280;45684;48.358;10.746;2023-03-13T19:25:10;94424.34;;;12.81;100.00
10014;BME280;45684;48.358;10.746;2023-03-13T19:27:39;94429.88;;;12.92;100.00
10014;BME280;45684;48.358;10.746;2023-03-13T19:30:16;94424.00;;;12.86;100.00
10014;BME280;45684;48.358;10.746;2023-03-13T19:32:44;94429.03;;;12.84;100.00
10014;BME280;45684;48.358;10.746;2023-03-13T19:35:12;94421.09;;;12.65;100.00
10014;BME280;45684;48.358;10.746;2023-03-13T19:37:44;94428.59;;;12.45;100.00
10014;BME280;45684;48.358;10.746;2023-03-13T19:40:16;94420.22;;;12.57;100.00
10014;BME280;45684;48.358;10.746;2023-03-13T19:42:45;94435.56;;;12.42;100.00
10014;BME280;45684;48.358;10.746;2023-03-13T19:45:13;94426.28;;;12.10;100.00
10014;BME280;45684;48.358;10.746;2023-03-13T19:47:44;94427.72;;;12.00;100.00
10014;BME280;45684;48.358;10.746;2023-03-13T19:50:15;94423.66;;;11.87;100.00
10014;BME280;45684;48.358;10.746;2023-03-13T19:52:44;94425.53;;;11.83;100.00
10014;BME280;45684;48.358;10.746;2023-03-13T19:55:12;94437.66;;;11.92;100.00
10014;BME280;45684;48.358;10.746;2023-03-13T19:57:40;94445.44;;;11.67;100.00
10014;BME280;45684;48.358;10.746;2023-03-13T20:00:16;94448.53;;;11.69;100.00
10014;BME280;45684;48.358;10.746;2023-03-13T20:02:46;94442.19;;;11.58;100.00
10014;BME280;45684;48.358;10.746;2023-03-13T20:05:14;94440.59;;;11.54;100.00
10014;BME280;45684;48.358;10.746;2023-03-13T20:07:41;94437.00;;;11.46;100.00
10014;BME280;45684;48.358;10.746;2023-03-13T20:10:10;94434.28;;;11.46;100.00
10014;BME280;45684;48.358;10.746;2023-03-13T20:12:37;94433.50;;;11.45;100.00
10014;BME280;45684;48.358;10.746;2023-03-13T20:15:07;94432.00;;;11.48;100.00
10014;BME280;45684;48.358;10.746;2023-03-13T20:17:36;94424.59;;;11.45;100.00
10014;BME280;45684;48.358;10.746;2023-03-13T20:20:06;94426.72;;;11.32;100.00
10014;BME280;45684;48.358;10.746;2023-03-13T20:22:35;94422.53;;;11.35;100.00
10014;BME280;45684;48.358;10.746;2023-03-13T20:25:03;94418.16;;;11.27;100.00
10014;BME280;45684;48.358;10.746;2023-03-13T20:27:31;94433.13;;;11.20;100.00
10014;BME280;45684;48.358;10.746;2023-03-13T20:29:59;94433.91;;;11.21;100.00
10014;BME280;45684;48.358;10.746;2023-03-13T20:32:26;94438.63;;;11.28;100.00
10014;BME280;45684;48.358;10.746;2023-03-13T20:34:54;94432.91;;;11.33;100.00
10014;BME280;45684;48.358;10.746;2023-03-13T20:37:23;94426.78;;;11.36;100.00
10014;BME280;45684;48.358;10.746;2023-03-13T20:39:51;94421.81;;;11.38;100.00
10014;BME280;45684;48.358;10.746;2023-03-13T20:42:19;94441.56;;;11.42;100.00
10014;BME280;45684;48.358;10.746;2023-03-13T20:44:48;94434.19;;;11.39;100.00
10014;BME280;45684;48.358;10.746;2023-03-13T20:47:16;94436.84;;;11.35;100.00
10014;BME280;45684;48.358;10.746;2023-03-13T20:49:43;94428.84;;;11.42;100.00
10014;BME280;45684;48.358;10.746;2023-03-13T20:52:11;94450.31;;;11.32;100.00
10014;BME280;45684;48.358;10.746;2023-03-13T20:54:40;94432.25;;;11.39;100.00
10014;BME280;45684;48.358;10.746;2023-03-13T20:57:08;94438.75;;;11.35;100.00
10014;BME280;45684;48.358;10.746;2023-03-13T20:59:36;94455.72;;;11.32;100.00
10014;BME280;45684;48.358;10.746;2023-03-13T21:02:04;94462.69;;;11.33;100.00
10014;BME280;45684;48.358;10.746;2023-03-13T21:04:32;94471.34;;;11.42;100.00
10014;BME280;45684;48.358;10.746;2023-03-13T21:07:00;94499.44;;;11.34;100.00
10014;BME280;45684;48.358;10.746;2023-03-13T21:09:30;94502.94;;;11.34;100.00
10014;BME280;45684;48.358;10.746;2023-03-13T21:12:00;94524.75;;;11.45;100.00
10014;BME280;45684;48.358;10.746;2023-03-13T21:14:28;94534.09;;;11.47;100.00
10014;BME280;45684;48.358;10.746;2023-03-13T21:16:56;94539.66;;;11.58;100.00
10014;BME280;45684;48.358;10.746;2023-03-13T21:19:24;94547.06;;;11.61;100.00
10014;BME280;45684;48.358;10.746;2023-03-13T21:21:52;94575.38;;;11.67;100.00
10014;BME280;45684;48.358;10.746;2023-03-13T21:24:19;94585.44;;;11.90;100.00
10014;BME280;45684;48.358;10.746;2023-03-13T21:26:47;94636.09;;;12.12;100.00
10014;BME280;45684;48.358;10.746;2023-03-13T21:29:16;94771.03;;;12.49;100.00
10014;BME280;45684;48.358;10.746;2023-03-13T21:31:44;94747.81;;;12.74;100.00
10014;BME280;45684;48.358;10.746;2023-03-13T21:34:12;94725.50;;;13.15;100.00
10014;BME280;45684;48.358;10.746;2023-03-13T21:36:39;94742.81;;;13.30;100.00
10014;BME280;45684;48.358;10.746;2023-03-13T21:39:07;94746.81;;;13.43;100.00
10014;BME280;45684;48.358;10.746;2023-03-13T21:41:35;94761.44;;;13.31;100.00
10014;BME280;45684;48.358;10.746;2023-03-13T21:44:03;94762.72;;;13.14;100.00
10014;BME280;45684;48.358;10.746;2023-03-13T21:46:32;94785.00;;;13.00;100.00
10014;BME280;45684;48.358;10.746;2023-03-13T21:49:00;94805.00;;;12.89;100.00
10014;BME280;45684;48.358;10.746;2023-03-13T21:51:28;94834.63;;;12.74;100.00
10014;BME280;45684;48.358;10.746;2023-03-13T21:53:56;94849.63;;;12.68;100.00
10014;BME280;45684;48.358;10.746;2023-03-13T21:56:24;94846.31;;;12.79;100.00
10014;BME280;45684;48.358;10.746;2023-03-13T21:58:51;94855.16;;;12.75;100.00
10014;BME280;45684;48.358;10.746;2023-03-13T22:01:19;94861.75;;;12.74;100.00
10014;BME280;45684;48.358;10.746;2023-03-13T22:03:48;94843.78;;;12.66;100.00
10014;BME280;45684;48.358;10.746;2023-03-13T22:06:18;94841.13;;;12.47;100.00
10014;BME280;45684;48.358;10.746;2023-03-13T22:08:47;94844.22;;;12.26;100.00
10014;BME280;45684;48.358;10.746;2023-03-13T22:11:15;94832.31;;;12.11;100.00
10014;BME280;45684;48.358;10.746;2023-03-13T22:13:43;94826.44;;;12.06;100.00
10014;BME280;45684;48.358;10.746;2023-03-13T22:16:11;94826.94;;;11.92;100.00
10014;BME280;45684;48.358;10.746;2023-03-13T22:18:38;94819.34;;;11.82;100.00
10014;BME280;45684;48.358;10.746;2023-03-13T22:21:08;94817.78;;;11.81;100.00
10014;BME280;45684;48.358;10.746;2023-03-13T22:23:36;94820.78;;;11.75;100.00
10014;BME280;45684;48.358;10.746;2023-03-13T22:26:04;94822.34;;;11.77;100.00
10014;BME280;45684;48.358;10.746;2023-03-13T22:28:32;94807.97;;;11.72;100.00
10014;BME280;45684;48.358;10.746;2023-03-13T22:31:01;94800.63;;;11.73;100.00
10014;BME280;45684;48.358;10.746;2023-03-13T22:33:29;94794.34;;;11.69;100.00
10014;BME280;45684;48.358;10.746;2023-03-13T22:35:56;94783.38;;;11.62;100.00
10014;BME280;45684;48.358;10.746;2023-03-13T22:38:26;94785.72;;;11.63;100.00
10014;BME280;45684;48.358;10.746;2023-03-13T22:40:59;94769.63;;;11.51;100.00
10014;BME280;45684;48.358;10.746;2023-03-13T22:43:28;94756.16;;;11.55;100.00
10014;BME280;45684;48.358;10.746;2023-03-13T22:45:56;94759.16;;;11.49;100.00
10014;BME280;45684;48.358;10.746;2023-03-13T22:48:26;94757.94;;;11.47;100.00
10014;BME280;45684;48.358;10.746;2023-03-13T22:50:59;94740.97;;;11.50;100.00
10014;BME280;45684;48.358;10.746;2023-03-13T22:53:28;94726.31;;;11.51;100.00
10014;BME280;45684;48.358;10.746;2023-03-13T22:55:56;94738.97;;;11.47;100.00
10014;BME280;45684;48.358;10.746;2023-03-13T22:58:25;94735.16;;;11.48;100.00
10014;BME280;45684;48.358;10.746;2023-03-13T23:00:53;94714.97;;;11.45;100.00
10014;BME280;45684;48.358;10.746;2023-03-13T23:03:21;94691.00;;;11.44;100.00
10014;BME280;45684;48.358;10.746;2023-03-13T23:05:49;94696.69;;;11.39;100.00
10014;BME280;45684;48.358;10.746;2023-03-13T23:08:17;94681.09;;;11.32;100.00
10014;BME280;45684;48.358;10.746;2023-03-13T23:10:46;94691.44;;;11.27;100.00
10014;BME280;45684;48.358;10.746;2023-03-13T23:13:14;94672.78;;;11.21;100.00
10014;BME280;45684;48.358;10.746;2023-03-13T23:15:42;94661.47;;;11.16;100.00
10014;BME280;45684;48.358;10.746;2023-03-13T23:18:21;94639.38;;;10.94;100.00
10014;BME280;45684;48.358;10.746;2023-03-13T23:20:49;94613.91;;;10.95;100.00
10014;BME280;45684;48.358;10.746;2023-03-13T23:23:17;94600.97;;;10.85;100.00
10014;BME280;45684;48.358;10.746;2023-03-13T23:25:46;94603.31;;;10.87;100.00
10014;BME280;45684;48.358;10.746;2023-03-13T23:28:14;94630.22;;;10.80;100.00
10014;BME280;45684;48.358;10.746;2023-03-13T23:30:42;94644.09;;;10.78;100.00
10014;BME280;45684;48.358;10.746;2023-03-13T23:33:09;94658.66;;;10.73;100.00
10014;BME280;45684;48.358;10.746;2023-03-13T23:35:37;94676.16;;;10.60;100.00
10014;BME280;45684;48.358;10.746;2023-03-13T23:38:05;94672.75;;;10.63;100.00
10014;BME280;45684;48.358;10.746;2023-03-13T23:40:33;94687.66;;;10.57;100.00
10014;BME280;45684;48.358;10.746;2023-03-13T23:43:02;94688.44;;;10.58;100.00
10014;BME280;45684;48.358;10.746;2023-03-13T23:45:33;94699.19;;;10.54;100.00
10014;BME280;45684;48.358;10.746;2023-03-13T23:48:01;94693.50;;;10.43;100.00
10014;BME280;45684;48.358;10.746;2023-03-13T23:50:29;94694.38;;;10.47;100.00
10014;BME280;45684;48.358;10.746;2023-03-13T23:52:57;94690.53;;;10.48;100.00
10014;BME280;45684;48.358;10.746;2023-03-13T23:55:24;94712.25;;;10.52;100.00
10014;BME280;45684;48.358;10.746;2023-03-13T23:57:52;94729.09;;;10.45;100.00
